createdAt,value
2017-09-17T00:00:12.661Z,22.33
2017-09-17T00:00:53.108Z,22.34
2017-09-17T00:01:33.555Z,22.4
2017-09-17T00:02:14.003Z,22.37
2017-09-17T00:02:54.453Z,22.33
2017-09-17T00:03:34.900Z,22.34
2017-09-17T00:04:15.349Z,22.36
2017-09-17T00:04:55.799Z,22.38
2017-09-17T00:05:36.247Z,22.37
2017-09-17T00:06:16.688Z,22.38
2017-09-17T00:06:57.139Z,22.36
2017-09-17T00:07:37.595Z,22.34
2017-09-17T00:08:18.055Z,22.31
2017-09-17T00:08:58.496Z,22.34
2017-09-17T00:09:38.948Z,22.36
2017-09-17T00:10:19.393Z,22.31
2017-09-17T00:10:59.843Z,22.34
2017-09-17T00:11:40.287Z,22.31
2017-09-17T00:12:20.735Z,22.37
2017-09-17T00:13:01.187Z,22.37
2017-09-17T00:13:41.635Z,22.36
2017-09-17T00:14:22.090Z,22.41
2017-09-17T00:15:02.544Z,22.37
2017-09-17T00:15:43.002Z,22.36
2017-09-17T00:16:23.457Z,22.43
2017-09-17T00:17:03.907Z,22.38
2017-09-17T00:17:44.359Z,22.34
2017-09-17T00:18:24.809Z,22.33
2017-09-17T00:19:05.258Z,22.4
2017-09-17T00:19:45.704Z,22.38
2017-09-17T00:20:26.168Z,22.37
2017-09-17T00:21:06.604Z,22.37
2017-09-17T00:21:47.062Z,22.3
2017-09-17T00:22:27.493Z,22.34
2017-09-17T00:23:07.943Z,22.37
2017-09-17T00:23:48.390Z,22.37
2017-09-17T00:24:28.843Z,22.38
2017-09-17T00:25:09.288Z,22.38
2017-09-17T00:25:49.733Z,22.3
2017-09-17T00:26:30.181Z,22.34
2017-09-17T00:27:10.625Z,22.4
2017-09-17T00:27:51.071Z,22.38
2017-09-17T00:28:31.521Z,22.34
2017-09-17T00:29:11.966Z,22.4
2017-09-17T00:29:52.427Z,22.36
2017-09-17T00:30:32.876Z,22.38
2017-09-17T00:31:13.324Z,22.37
2017-09-17T00:31:53.768Z,22.36
2017-09-17T00:32:34.205Z,22.31
2017-09-17T00:33:14.661Z,22.33
2017-09-17T00:33:55.105Z,22.31
2017-09-17T00:34:35.560Z,22.34
2017-09-17T00:35:16.001Z,22.33
2017-09-17T00:35:56.454Z,22.37
2017-09-17T00:36:36.902Z,22.37
2017-09-17T00:37:17.355Z,22.38
2017-09-17T00:37:57.818Z,22.37
2017-09-17T00:38:38.264Z,22.33
2017-09-17T00:39:18.688Z,22.38
2017-09-17T00:39:59.133Z,22.38
2017-09-17T00:40:39.574Z,22.34
2017-09-17T00:41:20.029Z,22.34
2017-09-17T00:42:00.467Z,22.36
2017-09-17T00:42:40.912Z,22.37
2017-09-17T00:43:21.381Z,22.37
2017-09-17T00:44:01.818Z,22.36
2017-09-17T00:44:42.271Z,22.36
2017-09-17T00:45:22.724Z,22.43
2017-09-17T00:46:03.170Z,22.33
2017-09-17T00:46:43.631Z,22.34
2017-09-17T00:47:24.060Z,22.34
2017-09-17T00:48:04.517Z,22.34
2017-09-17T00:48:44.964Z,22.33
2017-09-17T00:49:25.402Z,22.36
2017-09-17T00:50:05.857Z,22.37
2017-09-17T00:50:46.314Z,22.34
2017-09-17T00:51:26.742Z,22.34
2017-09-17T00:52:07.194Z,22.37
2017-09-17T00:52:47.642Z,22.4
2017-09-17T00:53:28.084Z,22.38
2017-09-17T00:54:08.546Z,22.37
2017-09-17T00:54:49.004Z,22.37
2017-09-17T00:55:29.452Z,22.34
2017-09-17T00:56:09.901Z,22.36
2017-09-17T00:56:50.344Z,22.34
2017-09-17T00:57:30.780Z,22.4
2017-09-17T00:58:11.225Z,22.4
2017-09-17T00:58:51.655Z,22.41
2017-09-17T00:59:32.104Z,22.41
2017-09-17T01:00:12.549Z,22.41
2017-09-17T01:00:52.982Z,22.43
2017-09-17T01:01:33.436Z,22.4
2017-09-17T01:02:13.881Z,22.4
2017-09-17T01:02:54.319Z,22.38
2017-09-17T01:03:34.760Z,22.36
2017-09-17T01:04:15.216Z,22.41
2017-09-17T01:04:55.656Z,22.36
2017-09-17T01:05:36.102Z,22.36
2017-09-17T01:06:16.547Z,22.4
2017-09-17T01:06:56.995Z,22.36
2017-09-17T01:07:37.451Z,22.36
2017-09-17T01:08:17.894Z,22.37
2017-09-17T01:08:58.328Z,22.31
2017-09-17T01:09:38.775Z,22.38
2017-09-17T01:10:19.223Z,22.36
2017-09-17T01:10:59.674Z,22.33
2017-09-17T01:11:40.106Z,22.36
2017-09-17T01:12:20.559Z,22.36
2017-09-17T01:13:01.008Z,22.36
2017-09-17T01:13:41.456Z,22.38
2017-09-17T01:14:21.904Z,22.31
2017-09-17T01:15:02.346Z,22.38
2017-09-17T01:17:15.116Z,22.37
2017-09-17T01:17:55.561Z,22.37
2017-09-17T01:18:36.004Z,22.31
2017-09-17T01:19:16.447Z,22.36
2017-09-17T01:19:56.899Z,22.34
2017-09-17T01:20:37.349Z,22.34
2017-09-17T01:21:17.798Z,22.31
2017-09-17T01:21:58.247Z,22.31
2017-09-17T01:22:38.687Z,22.37
2017-09-17T01:23:19.124Z,22.3
2017-09-17T01:23:59.575Z,22.38
2017-09-17T01:24:40.014Z,22.38
2017-09-17T01:25:20.460Z,22.28
2017-09-17T01:26:00.918Z,22.38
2017-09-17T01:26:41.340Z,22.3
2017-09-17T01:27:21.794Z,22.34
2017-09-17T01:28:02.248Z,22.38
2017-09-17T01:28:42.677Z,22.41
2017-09-17T01:29:23.121Z,22.36
2017-09-17T01:30:03.575Z,22.33
2017-09-17T01:30:44.019Z,22.3
2017-09-17T01:31:24.464Z,22.4
2017-09-17T01:32:04.914Z,22.33
2017-09-17T01:32:45.365Z,22.3
2017-09-17T01:33:25.813Z,22.36
2017-09-17T01:34:06.266Z,22.31
2017-09-17T01:34:46.702Z,22.36
2017-09-17T01:35:27.151Z,22.31
2017-09-17T01:36:07.614Z,22.31
2017-09-17T01:36:48.059Z,22.41
2017-09-17T01:37:28.522Z,22.36
2017-09-17T01:38:08.969Z,22.36
2017-09-17T01:38:49.414Z,22.37
2017-09-17T01:39:29.870Z,22.43
2017-09-17T01:40:10.314Z,22.33
2017-09-17T01:40:50.760Z,22.31
2017-09-17T01:41:31.208Z,22.37
2017-09-17T01:42:11.650Z,22.34
2017-09-17T01:42:52.118Z,22.36
2017-09-17T01:43:32.545Z,22.37
2017-09-17T01:44:12.994Z,22.26
2017-09-17T01:44:53.456Z,22.31
2017-09-17T01:45:33.904Z,22.23
2017-09-17T01:46:14.351Z,22.26
2017-09-17T01:48:01.950Z,22.23
2017-09-17T01:48:42.393Z,22.3
2017-09-17T01:49:22.835Z,22.31
2017-09-17T01:50:03.286Z,22.26
2017-09-17T01:50:43.740Z,22.26
2017-09-17T01:51:24.182Z,22.25
2017-09-17T01:52:04.631Z,22.26
2017-09-17T01:52:45.076Z,22.33
2017-09-17T01:53:25.528Z,22.26
2017-09-17T01:54:05.974Z,22.28
2017-09-17T01:54:46.434Z,22.28
2017-09-17T01:55:26.881Z,22.28
2017-09-17T01:56:07.332Z,22.28
2017-09-17T01:56:47.777Z,22.33
2017-09-17T01:57:28.221Z,22.3
2017-09-17T01:58:08.688Z,22.25
2017-09-17T01:58:49.125Z,22.28
2017-09-17T01:59:29.574Z,22.28
2017-09-17T02:00:10.020Z,22.28
2017-09-17T02:00:50.484Z,22.3
2017-09-17T02:01:30.926Z,22.28
2017-09-17T02:02:11.374Z,22.28
2017-09-17T02:02:51.823Z,22.33
2017-09-17T02:03:32.279Z,22.26
2017-09-17T02:04:12.728Z,22.28
2017-09-17T02:04:53.177Z,22.26
2017-09-17T02:05:33.615Z,22.31
2017-09-17T02:06:14.064Z,22.23
2017-09-17T02:06:54.514Z,22.23
2017-09-17T02:07:34.961Z,22.31
2017-09-17T02:08:15.411Z,22.31
2017-09-17T02:08:55.854Z,22.3
2017-09-17T02:09:36.309Z,22.23
2017-09-17T02:10:16.762Z,22.28
2017-09-17T02:10:57.213Z,22.33
2017-09-17T02:11:37.666Z,22.34
2017-09-17T02:12:18.114Z,22.26
2017-09-17T02:12:58.560Z,22.23
2017-09-17T02:13:39.006Z,22.3
2017-09-17T02:14:19.460Z,22.3
2017-09-17T02:14:59.909Z,22.22
2017-09-17T02:15:40.357Z,22.25
2017-09-17T02:16:20.810Z,22.3
2017-09-17T02:17:01.265Z,22.28
2017-09-17T02:17:41.714Z,22.36
2017-09-17T02:18:22.163Z,22.31
2017-09-17T02:19:02.618Z,22.25
2017-09-17T02:19:43.059Z,22.23
2017-09-17T02:20:23.508Z,22.23
2017-09-17T02:21:03.955Z,22.25
2017-09-17T02:21:44.400Z,22.23
2017-09-17T02:22:24.851Z,22.21
2017-09-17T02:23:05.299Z,22.26
2017-09-17T02:23:45.752Z,22.25
2017-09-17T02:24:26.195Z,22.28
2017-09-17T02:25:06.652Z,22.26
2017-09-17T02:25:47.089Z,22.31
2017-09-17T02:26:27.534Z,22.26
2017-09-17T02:27:07.975Z,22.28
2017-09-17T02:27:48.423Z,22.23
2017-09-17T02:28:28.868Z,22.26
2017-09-17T02:29:09.311Z,22.28
2017-09-17T02:29:49.763Z,22.28
2017-09-17T02:30:30.218Z,22.33
2017-09-17T02:31:10.668Z,22.33
2017-09-17T02:31:51.110Z,22.31
2017-09-17T02:32:31.569Z,22.26
2017-09-17T02:33:12.018Z,22.26
2017-09-17T02:33:52.468Z,22.25
2017-09-17T02:34:32.915Z,22.28
2017-09-17T02:35:13.361Z,22.23
2017-09-17T02:35:53.807Z,22.31
2017-09-17T02:36:34.276Z,22.28
2017-09-17T02:37:14.728Z,22.26
2017-09-17T02:37:55.178Z,22.26
2017-09-17T02:38:35.626Z,22.26
2017-09-17T02:39:16.071Z,22.26
2017-09-17T02:39:56.521Z,22.26
2017-09-17T02:40:36.966Z,22.22
2017-09-17T02:41:17.418Z,22.31
2017-09-17T02:41:57.860Z,22.3
2017-09-17T02:42:38.311Z,22.36
2017-09-17T02:43:18.764Z,22.26
2017-09-17T02:43:59.209Z,22.3
2017-09-17T02:44:39.653Z,22.34
2017-09-17T02:45:20.107Z,22.28
2017-09-17T02:46:00.549Z,22.3
2017-09-17T02:46:40.997Z,22.25
2017-09-17T02:47:21.439Z,22.33
2017-09-17T02:48:01.884Z,22.28
2017-09-17T02:48:42.341Z,22.36
2017-09-17T02:49:22.781Z,22.31
2017-09-17T02:50:03.233Z,22.28
2017-09-17T02:50:43.670Z,22.23
2017-09-17T02:51:24.130Z,22.25
2017-09-17T02:52:04.577Z,22.28
2017-09-17T02:52:45.027Z,22.22
2017-09-17T02:53:25.474Z,22.28
2017-09-17T02:54:05.918Z,22.23
2017-09-17T02:54:46.366Z,22.23
2017-09-17T02:55:26.819Z,22.26
2017-09-17T02:56:07.259Z,22.23
2017-09-17T02:56:47.716Z,22.3
2017-09-17T02:57:28.162Z,22.28
2017-09-17T02:58:08.606Z,22.33
2017-09-17T02:58:49.053Z,22.34
2017-09-17T02:59:29.501Z,22.36
2017-09-17T03:00:09.942Z,22.28
2017-09-17T03:00:50.394Z,22.36
2017-09-17T03:01:30.849Z,22.28
2017-09-17T03:02:11.298Z,22.26
2017-09-17T03:02:51.749Z,22.3
2017-09-17T03:03:32.195Z,22.26
2017-09-17T03:04:12.650Z,22.26
2017-09-17T03:04:53.094Z,22.23
2017-09-17T03:05:33.549Z,22.23
2017-09-17T03:06:13.988Z,22.28
2017-09-17T03:06:54.425Z,22.28
2017-09-17T03:07:34.872Z,22.31
2017-09-17T03:08:15.321Z,22.25
2017-09-17T03:08:55.771Z,22.33
2017-09-17T03:09:36.218Z,22.28
2017-09-17T03:10:16.673Z,22.25
2017-09-17T03:10:57.120Z,22.28
2017-09-17T03:11:37.571Z,22.23
2017-09-17T03:12:18.018Z,22.25
2017-09-17T03:12:58.465Z,22.25
2017-09-17T03:13:38.913Z,22.28
2017-09-17T03:14:19.368Z,22.23
2017-09-17T03:14:59.813Z,22.18
2017-09-17T03:15:40.261Z,22.25
2017-09-17T03:16:20.708Z,22.25
2017-09-17T03:17:01.155Z,22.23
2017-09-17T03:17:41.604Z,22.19
2017-09-17T03:18:22.050Z,22.21
2017-09-17T03:19:02.504Z,22.25
2017-09-17T03:19:42.948Z,22.22
2017-09-17T03:20:23.401Z,22.28
2017-09-17T03:21:03.849Z,22.3
2017-09-17T03:21:44.295Z,22.26
2017-09-17T03:22:24.746Z,22.26
2017-09-17T03:23:05.186Z,22.28
2017-09-17T03:23:45.634Z,22.3
2017-09-17T03:24:26.083Z,22.23
2017-09-17T03:25:06.537Z,22.28
2017-09-17T03:25:46.991Z,22.25
2017-09-17T03:26:27.439Z,22.23
2017-09-17T03:27:07.888Z,22.3
2017-09-17T03:27:48.336Z,22.28
2017-09-17T03:28:28.780Z,22.28
2017-09-17T03:29:09.226Z,22.25
2017-09-17T03:29:49.660Z,22.25
2017-09-17T03:30:30.109Z,22.22
2017-09-17T03:31:10.563Z,22.31
2017-09-17T03:31:51.010Z,22.28
2017-09-17T03:32:31.446Z,22.28
2017-09-17T03:33:11.895Z,22.26
2017-09-17T03:33:52.345Z,22.28
2017-09-17T03:34:32.794Z,22.25
2017-09-17T03:35:13.239Z,22.3
2017-09-17T03:35:53.680Z,22.31
2017-09-17T03:36:34.132Z,22.25
2017-09-17T03:37:14.577Z,22.25
2017-09-17T03:37:55.030Z,22.3
2017-09-17T03:38:35.487Z,22.28
2017-09-17T03:39:15.925Z,22.34
2017-09-17T03:39:56.380Z,22.28
2017-09-17T03:40:36.831Z,22.26
2017-09-17T03:41:17.283Z,22.25
2017-09-17T03:41:57.725Z,22.21
2017-09-17T03:42:38.171Z,22.25
2017-09-17T03:43:18.614Z,22.28
2017-09-17T03:43:59.060Z,22.3
2017-09-17T03:44:39.514Z,22.19
2017-09-17T03:45:19.957Z,22.26
2017-09-17T03:46:00.410Z,22.23
2017-09-17T03:46:40.855Z,22.3
2017-09-17T03:47:21.301Z,22.23
2017-09-17T03:48:01.757Z,22.16
2017-09-17T03:48:42.196Z,22.21
2017-09-17T03:49:22.645Z,22.22
2017-09-17T03:50:03.102Z,22.23
2017-09-17T03:50:43.549Z,22.22
2017-09-17T03:51:23.995Z,22.25
2017-09-17T03:52:04.428Z,22.23
2017-09-17T03:52:44.878Z,22.25
2017-09-17T03:53:25.316Z,22.22
2017-09-17T03:54:05.760Z,22.28
2017-09-17T03:54:46.212Z,22.18
2017-09-17T03:55:26.662Z,22.25
2017-09-17T03:56:07.110Z,22.19
2017-09-17T03:56:47.563Z,22.26
2017-09-17T03:57:28.011Z,22.22
2017-09-17T03:58:08.451Z,22.19
2017-09-17T03:58:48.897Z,22.26
2017-09-17T03:59:29.339Z,22.23
2017-09-17T04:00:09.781Z,22.19
2017-09-17T04:00:50.233Z,22.23
2017-09-17T04:01:30.681Z,22.25
2017-09-17T04:02:11.161Z,22.21
2017-09-17T04:02:51.605Z,22.16
2017-09-17T04:03:32.043Z,22.18
2017-09-17T04:04:12.486Z,22.21
2017-09-17T04:04:52.941Z,22.23
2017-09-17T04:05:33.387Z,22.28
2017-09-17T04:06:13.821Z,22.28
2017-09-17T04:06:54.262Z,22.28
2017-09-17T04:07:34.716Z,22.25
2017-09-17T04:08:15.160Z,22.28
2017-09-17T04:08:55.607Z,22.3
2017-09-17T04:09:36.057Z,22.23
2017-09-17T04:10:16.513Z,22.34
2017-09-17T04:10:56.968Z,22.38
2017-09-17T04:11:37.421Z,22.33
2017-09-17T04:12:17.871Z,22.34
2017-09-17T04:12:58.321Z,22.36
2017-09-17T04:13:38.770Z,22.31
2017-09-17T04:14:19.217Z,22.37
2017-09-17T04:14:59.673Z,22.34
2017-09-17T04:15:40.121Z,22.4
2017-09-17T04:16:20.565Z,22.38
2017-09-17T04:17:01.017Z,22.43
2017-09-17T04:17:41.467Z,22.38
2017-09-17T04:18:21.916Z,22.41
2017-09-17T04:19:02.362Z,22.41
2017-09-17T04:19:42.814Z,22.43
2017-09-17T04:20:23.264Z,22.53
2017-09-17T04:21:03.704Z,22.41
2017-09-17T04:21:44.154Z,22.52
2017-09-17T04:22:24.601Z,22.44
2017-09-17T04:23:05.052Z,22.47
2017-09-17T04:23:45.503Z,22.47
2017-09-17T04:24:25.949Z,22.56
2017-09-17T04:25:06.398Z,22.55
2017-09-17T04:25:46.854Z,22.47
2017-09-17T04:26:27.299Z,22.52
2017-09-17T04:27:07.744Z,22.51
2017-09-17T04:27:48.191Z,22.49
2017-09-17T04:28:28.638Z,22.55
2017-09-17T04:29:09.090Z,22.49
2017-09-17T04:29:49.534Z,22.56
2017-09-17T04:30:29.982Z,22.56
2017-09-17T04:31:10.439Z,22.59
2017-09-17T04:31:50.887Z,22.55
2017-09-17T04:32:31.338Z,22.49
2017-09-17T04:33:11.785Z,22.41
2017-09-17T04:33:52.234Z,22.51
2017-09-17T04:34:32.685Z,22.47
2017-09-17T04:35:13.141Z,22.59
2017-09-17T04:35:53.601Z,22.53
2017-09-17T04:36:34.040Z,22.52
2017-09-17T04:37:14.481Z,22.55
2017-09-17T04:37:54.937Z,22.56
2017-09-17T04:38:35.386Z,22.51
2017-09-17T04:39:15.852Z,22.58
2017-09-17T04:39:56.298Z,22.46
2017-09-17T04:40:36.753Z,22.59
2017-09-17T04:41:17.200Z,22.44
2017-09-17T04:41:57.654Z,22.43
2017-09-17T04:42:38.109Z,22.56
2017-09-17T04:43:18.564Z,22.58
2017-09-17T04:43:59.001Z,22.52
2017-09-17T04:44:39.452Z,22.56
2017-09-17T04:45:19.903Z,22.51
2017-09-17T04:46:00.386Z,22.43
2017-09-17T04:46:40.823Z,22.51
2017-09-17T04:47:21.280Z,22.59
2017-09-17T04:48:01.726Z,22.51
2017-09-17T04:48:42.169Z,22.59
2017-09-17T04:49:22.614Z,22.52
2017-09-17T04:50:03.061Z,22.49
2017-09-17T04:50:43.519Z,22.53
2017-09-17T04:51:23.966Z,22.55
2017-09-17T04:52:04.415Z,22.56
2017-09-17T04:52:44.865Z,22.56
2017-09-17T04:53:25.313Z,22.55
2017-09-17T04:54:05.761Z,22.49
2017-09-17T04:54:46.209Z,22.55
2017-09-17T04:55:26.659Z,22.56
2017-09-17T04:56:07.112Z,22.52
2017-09-17T04:56:47.572Z,22.49
2017-09-17T04:57:28.016Z,22.56
2017-09-17T04:58:08.461Z,22.52
2017-09-17T04:58:48.916Z,22.52
2017-09-17T04:59:29.368Z,22.51
2017-09-17T05:00:09.809Z,22.4
2017-09-17T05:00:50.267Z,22.43
2017-09-17T05:01:30.713Z,22.43
2017-09-17T05:02:11.164Z,22.43
2017-09-17T05:02:51.616Z,22.47
2017-09-17T05:03:32.067Z,22.4
2017-09-17T05:04:12.520Z,22.41
2017-09-17T05:04:52.961Z,22.38
2017-09-17T05:05:33.409Z,22.43
2017-09-17T05:06:13.869Z,22.41
2017-09-17T05:06:54.304Z,22.43
2017-09-17T05:07:34.750Z,22.47
2017-09-17T05:08:15.203Z,22.43
2017-09-17T05:08:55.650Z,22.38
2017-09-17T05:09:36.099Z,22.41
2017-09-17T05:10:16.545Z,22.41
2017-09-17T05:10:56.988Z,22.37
2017-09-17T05:11:37.458Z,22.31
2017-09-17T05:12:17.904Z,22.31
2017-09-17T05:12:58.369Z,22.36
2017-09-17T05:13:38.800Z,22.34
2017-09-17T05:14:19.237Z,22.38
2017-09-17T05:14:59.686Z,22.38
2017-09-17T05:15:40.129Z,22.38
2017-09-17T05:16:20.575Z,22.28
2017-09-17T05:17:01.020Z,22.34
2017-09-17T05:17:41.473Z,22.34
2017-09-17T05:18:21.922Z,22.3
2017-09-17T05:19:02.377Z,22.37
2017-09-17T05:19:42.830Z,22.3
2017-09-17T05:20:23.280Z,22.37
2017-09-17T05:21:03.741Z,22.36
2017-09-17T05:21:44.197Z,22.38
2017-09-17T05:22:24.644Z,22.36
2017-09-17T05:23:05.084Z,22.31
2017-09-17T05:23:45.524Z,22.34
2017-09-17T05:24:25.978Z,22.33
2017-09-17T05:25:06.447Z,22.34
2017-09-17T05:25:46.870Z,22.34
2017-09-17T05:26:27.343Z,22.31
2017-09-17T05:27:07.793Z,22.34
2017-09-17T05:27:48.240Z,22.31
2017-09-17T05:28:28.687Z,22.31
2017-09-17T05:29:09.133Z,22.26
2017-09-17T05:29:49.590Z,22.23
2017-09-17T05:30:30.023Z,22.26
2017-09-17T05:31:10.471Z,22.26
2017-09-17T05:31:50.913Z,22.26
2017-09-17T05:32:31.369Z,22.28
2017-09-17T05:33:11.827Z,22.36
2017-09-17T05:33:52.284Z,22.36
2017-09-17T05:34:32.740Z,22.34
2017-09-17T05:35:13.174Z,22.3
2017-09-17T05:35:53.626Z,22.37
2017-09-17T05:36:34.067Z,22.26
2017-09-17T05:37:14.519Z,22.23
2017-09-17T05:37:54.972Z,22.34
2017-09-17T05:38:35.441Z,22.31
2017-09-17T05:39:15.899Z,22.31
2017-09-17T05:39:56.350Z,22.37
2017-09-17T05:40:36.795Z,22.34
2017-09-17T05:41:17.244Z,22.31
2017-09-17T05:41:57.692Z,22.26
2017-09-17T05:42:38.170Z,22.31
2017-09-17T05:43:18.618Z,22.33
2017-09-17T05:43:59.068Z,22.28
2017-09-17T05:44:39.511Z,22.36
2017-09-17T05:45:19.962Z,22.25
2017-09-17T05:46:00.395Z,22.34
2017-09-17T05:46:40.844Z,22.34
2017-09-17T05:47:21.279Z,22.36
2017-09-17T05:48:01.737Z,22.37
2017-09-17T05:48:42.177Z,22.33
2017-09-17T05:50:54.983Z,22.31
2017-09-17T05:51:35.425Z,22.38
2017-09-17T05:52:15.871Z,22.37
2017-09-17T05:52:56.318Z,22.34
2017-09-17T05:53:36.763Z,22.36
2017-09-17T05:54:17.212Z,22.38
2017-09-17T05:54:57.646Z,22.41
2017-09-17T05:55:38.089Z,22.37
2017-09-17T05:56:18.532Z,22.37
2017-09-17T05:56:58.986Z,22.37
2017-09-17T05:57:39.427Z,22.36
2017-09-17T05:58:19.898Z,22.37
2017-09-17T05:59:00.351Z,22.38
2017-09-17T05:59:40.802Z,22.41
2017-09-17T06:00:21.258Z,22.34
2017-09-17T06:01:01.681Z,22.38
2017-09-17T06:01:42.151Z,22.38
2017-09-17T06:02:22.591Z,22.36
2017-09-17T06:03:03.020Z,22.41
2017-09-17T06:03:43.467Z,22.31
2017-09-17T06:04:23.913Z,22.33
2017-09-17T06:05:04.391Z,22.38
2017-09-17T06:05:44.820Z,22.34
2017-09-17T06:06:25.261Z,22.36
2017-09-17T06:07:05.710Z,22.34
2017-09-17T06:07:46.170Z,22.34
2017-09-17T06:08:26.628Z,22.37
2017-09-17T06:09:07.074Z,22.37
2017-09-17T06:09:47.502Z,22.37
2017-09-17T06:10:27.952Z,22.4
2017-09-17T06:11:08.388Z,22.4
2017-09-17T06:11:48.829Z,22.37
2017-09-17T06:12:29.270Z,22.31
2017-09-17T06:13:09.716Z,22.37
2017-09-17T06:13:50.141Z,22.37
2017-09-17T06:14:30.563Z,22.38
2017-09-17T06:15:11.010Z,22.36
2017-09-17T06:15:51.469Z,22.37
2017-09-17T06:16:31.915Z,22.34
2017-09-17T06:17:12.373Z,22.36
2017-09-17T06:17:52.883Z,22.38
2017-09-17T06:18:33.304Z,22.43
2017-09-17T06:19:13.753Z,22.36
2017-09-17T06:19:54.202Z,22.34
2017-09-17T06:20:34.637Z,22.37
2017-09-17T06:21:15.092Z,22.37
2017-09-17T06:21:55.546Z,22.36
2017-09-17T06:22:36.075Z,22.36
2017-09-17T06:23:16.528Z,22.3
2017-09-17T06:23:56.972Z,22.3
2017-09-17T06:24:37.404Z,22.31
2017-09-17T06:25:17.851Z,22.37
2017-09-17T06:25:58.302Z,22.36
2017-09-17T06:26:38.757Z,22.43
2017-09-17T06:27:19.227Z,22.34
2017-09-17T06:27:59.674Z,22.37
2017-09-17T06:28:40.129Z,22.31
2017-09-17T06:29:20.576Z,22.38
2017-09-17T06:30:01.024Z,22.4
2017-09-17T06:30:41.476Z,22.38
2017-09-17T06:31:22.010Z,22.38
2017-09-17T06:32:02.421Z,22.31
2017-09-17T06:32:42.838Z,22.34
2017-09-17T06:33:23.298Z,22.34
2017-09-17T06:34:03.748Z,22.37
2017-09-17T06:34:44.206Z,22.46
2017-09-17T06:35:24.650Z,22.33
2017-09-17T06:36:05.118Z,22.31
2017-09-17T06:36:45.549Z,22.37
2017-09-17T06:37:26.039Z,22.36
2017-09-17T06:38:06.481Z,22.37
2017-09-17T06:38:46.953Z,22.37
2017-09-17T06:39:27.362Z,22.36
2017-09-17T06:40:07.829Z,22.43
2017-09-17T06:40:48.257Z,22.31
2017-09-17T06:41:28.706Z,22.37
2017-09-17T06:42:09.156Z,22.36
2017-09-17T06:42:49.604Z,22.37
2017-09-17T06:43:30.049Z,22.43
2017-09-17T06:44:10.499Z,22.4
2017-09-17T06:44:50.946Z,22.43
2017-09-17T06:45:31.395Z,22.43
2017-09-17T06:46:11.843Z,22.38
2017-09-17T06:46:52.317Z,22.34
2017-09-17T06:47:32.765Z,22.37
2017-09-17T06:48:13.209Z,22.4
2017-09-17T06:48:53.659Z,22.37
2017-09-17T06:49:34.110Z,22.43
2017-09-17T06:50:14.564Z,22.43
2017-09-17T06:50:55.014Z,22.41
2017-09-17T06:51:35.443Z,22.4
2017-09-17T06:52:15.890Z,22.37
2017-09-17T06:52:56.343Z,22.43
2017-09-17T06:53:36.788Z,22.43
2017-09-17T06:54:17.245Z,22.43
2017-09-17T06:54:57.693Z,22.41
2017-09-17T06:55:38.134Z,22.44
2017-09-17T06:56:18.596Z,22.38
2017-09-17T06:56:59.045Z,22.38
2017-09-17T06:57:39.490Z,22.37
2017-09-17T06:58:19.939Z,22.4
2017-09-17T06:59:00.388Z,22.43
2017-09-17T06:59:40.833Z,22.38
2017-09-17T07:00:21.282Z,22.38
2017-09-17T07:01:01.732Z,22.43
2017-09-17T07:01:42.174Z,22.51
2017-09-17T07:02:22.620Z,22.51
2017-09-17T07:03:03.061Z,22.38
2017-09-17T07:03:43.514Z,22.43
2017-09-17T07:04:23.987Z,22.43
2017-09-17T07:05:04.420Z,22.47
2017-09-17T07:05:44.858Z,22.43
2017-09-17T07:06:25.310Z,22.56
2017-09-17T07:07:05.766Z,22.53
2017-09-17T07:07:46.200Z,22.44
2017-09-17T07:08:26.654Z,22.55
2017-09-17T07:09:07.101Z,22.44
2017-09-17T07:09:47.541Z,22.56
2017-09-17T07:10:27.992Z,22.49
2017-09-17T07:11:08.429Z,22.46
2017-09-17T07:11:48.891Z,22.56
2017-09-17T07:12:29.335Z,22.4
2017-09-17T07:13:09.783Z,22.49
2017-09-17T07:13:50.237Z,22.52
2017-09-17T07:14:30.685Z,22.53
2017-09-17T07:15:11.131Z,22.52
2017-09-17T07:15:51.579Z,22.53
2017-09-17T07:16:32.034Z,22.49
2017-09-17T07:17:12.478Z,22.52
2017-09-17T07:17:52.924Z,22.53
2017-09-17T07:18:33.371Z,22.51
2017-09-17T07:19:13.831Z,22.52
2017-09-17T07:19:54.276Z,22.49
2017-09-17T07:20:34.724Z,22.49
2017-09-17T07:21:15.173Z,22.47
2017-09-17T07:21:55.615Z,22.52
2017-09-17T07:22:36.067Z,22.52
2017-09-17T07:23:16.515Z,22.51
2017-09-17T07:23:56.959Z,22.51
2017-09-17T07:24:37.402Z,22.53
2017-09-17T07:25:17.843Z,22.51
2017-09-17T07:25:58.314Z,22.52
2017-09-17T07:26:38.758Z,22.49
2017-09-17T07:27:19.208Z,22.44
2017-09-17T07:27:59.645Z,22.49
2017-09-17T07:28:40.103Z,22.44
2017-09-17T07:29:20.542Z,22.47
2017-09-17T07:30:00.990Z,22.4
2017-09-17T07:30:41.431Z,22.44
2017-09-17T07:31:21.880Z,22.51
2017-09-17T07:32:02.328Z,22.43
2017-09-17T07:32:42.775Z,22.44
2017-09-17T07:33:23.225Z,22.46
2017-09-17T07:34:03.647Z,22.47
2017-09-17T07:34:44.105Z,22.52
2017-09-17T07:35:24.563Z,22.47
2017-09-17T07:36:05.011Z,22.47
2017-09-17T07:36:45.457Z,22.4
2017-09-17T07:37:25.900Z,22.4
2017-09-17T07:38:06.343Z,22.51
2017-09-17T07:38:46.798Z,22.56
2017-09-17T07:39:27.267Z,22.51
2017-09-17T07:40:07.717Z,22.55
2017-09-17T07:40:48.156Z,22.47
2017-09-17T07:41:28.602Z,22.44
2017-09-17T07:42:09.050Z,22.51
2017-09-17T07:42:49.507Z,22.51
2017-09-17T07:43:29.946Z,22.52
2017-09-17T07:44:10.395Z,22.49
2017-09-17T07:44:50.843Z,22.52
2017-09-17T07:45:31.282Z,22.49
2017-09-17T07:46:11.721Z,22.55
2017-09-17T07:46:52.152Z,22.52
2017-09-17T07:47:32.603Z,22.51
2017-09-17T07:48:13.049Z,22.51
2017-09-17T07:48:53.519Z,22.49
2017-09-17T07:49:33.958Z,22.58
2017-09-17T07:50:14.438Z,22.53
2017-09-17T07:50:54.885Z,22.51
2017-09-17T07:51:35.345Z,22.51
2017-09-17T07:52:15.803Z,22.41
2017-09-17T07:52:56.255Z,22.59
2017-09-17T07:53:36.697Z,22.51
2017-09-17T07:54:17.148Z,22.46
2017-09-17T07:54:57.602Z,22.56
2017-09-17T07:55:38.035Z,22.47
2017-09-17T07:56:18.476Z,22.51
2017-09-17T07:56:58.954Z,22.51
2017-09-17T07:57:39.368Z,22.59
2017-09-17T07:58:19.774Z,22.49
2017-09-17T07:59:00.186Z,22.43
2017-09-17T07:59:40.592Z,22.46
2017-09-17T08:00:21.005Z,22.47
2017-09-17T08:01:01.411Z,22.56
2017-09-17T08:01:41.814Z,22.58
2017-09-17T08:02:22.256Z,22.58
2017-09-17T08:03:02.655Z,22.56
2017-09-17T08:03:43.068Z,22.51
2017-09-17T08:04:23.494Z,22.46
2017-09-17T08:05:03.905Z,22.55
2017-09-17T08:05:44.346Z,22.56
2017-09-17T08:06:24.784Z,22.47
2017-09-17T08:07:05.217Z,22.52
2017-09-17T08:07:45.661Z,22.53
2017-09-17T08:08:26.119Z,22.55
2017-09-17T08:09:06.555Z,22.55
2017-09-17T08:09:47.114Z,22.51
2017-09-17T08:10:27.553Z,22.56
2017-09-17T08:11:07.999Z,22.44
2017-09-17T08:11:48.448Z,22.51
2017-09-17T08:12:28.876Z,22.44
2017-09-17T08:13:09.302Z,22.46
2017-09-17T08:13:49.747Z,22.52
2017-09-17T08:14:30.192Z,22.62
2017-09-17T08:15:10.642Z,22.62
2017-09-17T08:17:03.253Z,22.7
2017-09-17T08:17:43.700Z,22.71
2017-09-17T08:18:24.146Z,22.74
2017-09-17T08:19:04.589Z,22.77
2017-09-17T08:19:45.163Z,22.76
2017-09-17T08:20:25.589Z,22.78
2017-09-17T08:21:06.023Z,22.78
2017-09-17T08:21:46.468Z,22.83
2017-09-17T08:22:26.950Z,22.83
2017-09-17T08:23:07.337Z,22.81
2017-09-17T08:23:47.726Z,22.77
2017-09-17T08:24:28.186Z,22.81
2017-09-17T08:25:08.560Z,22.81
2017-09-17T08:25:48.975Z,22.8
2017-09-17T08:26:29.535Z,22.78
2017-09-17T08:27:09.970Z,22.91
2017-09-17T08:27:50.414Z,22.83
2017-09-17T08:28:30.850Z,22.76
2017-09-17T08:29:11.292Z,22.78
2017-09-17T08:29:51.740Z,22.81
2017-09-17T08:30:32.168Z,22.77
2017-09-17T08:31:12.601Z,22.78
2017-09-17T08:31:53.010Z,22.74
2017-09-17T08:32:33.607Z,22.78
2017-09-17T08:33:13.988Z,22.74
2017-09-17T08:33:54.414Z,22.84
2017-09-17T08:34:34.796Z,22.8
2017-09-17T08:35:15.261Z,22.83
2017-09-17T08:35:55.635Z,22.76
2017-09-17T08:36:36.080Z,22.81
2017-09-17T08:37:16.500Z,22.81
2017-09-17T08:37:56.875Z,22.86
2017-09-17T08:38:37.295Z,22.71
2017-09-17T08:39:17.676Z,22.77
2017-09-17T08:41:05.076Z,22.78
2017-09-17T08:41:45.510Z,22.77
2017-09-17T08:42:25.941Z,22.83
2017-09-17T08:43:06.371Z,22.77
2017-09-17T08:43:46.813Z,22.76
2017-09-17T08:44:27.260Z,22.8
2017-09-17T08:45:07.709Z,22.77
2017-09-17T08:45:48.162Z,22.83
2017-09-17T08:46:28.602Z,22.81
2017-09-17T08:47:09.085Z,22.81
2017-09-17T08:47:49.523Z,22.78
2017-09-17T08:48:29.978Z,22.81